sensor_id;sensor_type;location;lat;lon;timestamp;temperature;humidity
728;DHT22;347;48.780;9.158;2023-03-31T00:02:19;13.90;28.50
728;DHT22;347;48.780;9.158;2023-03-31T00:04:46;13.90;28.60
728;DHT22;347;48.780;9.158;2023-03-31T00:07:17;13.90;28.70
728;DHT22;347;48.780;9.158;2023-03-31T00:09:47;13.90;28.30
728;DHT22;347;48.780;9.158;2023-03-31T00:12:14;13.80;27.70
728;DHT22;347;48.780;9.158;2023-03-31T00:14:40;13.80;28.50
728;DHT22;347;48.780;9.158;2023-03-31T00:17:06;13.70;27.80
728;DHT22;347;48.780;9.158;2023-03-31T00:19:32;13.60;27.80
728;DHT22;347;48.780;9.158;2023-03-31T00:21:58;13.50;27.90
728;DHT22;347;48.780;9.158;2023-03-31T00:24:30;13.50;28.30
728;DHT22;347;48.780;9.158;2023-03-31T00:27:01;13.40;28.40
728;DHT22;347;48.780;9.158;2023-03-31T00:29:27;13.40;28.20
728;DHT22;347;48.780;9.158;2023-03-31T00:31:53;13.40;28.70
728;DHT22;347;48.780;9.158;2023-03-31T00:34:19;13.40;28.10
728;DHT22;347;48.780;9.158;2023-03-31T00:36:45;13.40;28.50
728;DHT22;347;48.780;9.158;2023-03-31T00:39:17;13.40;28.30
728;DHT22;347;48.780;9.158;2023-03-31T00:41:43;13.30;28.40
728;DHT22;347;48.780;9.158;2023-03-31T00:44:18;13.30;28.60
728;DHT22;347;48.780;9.158;2023-03-31T00:49:42;13.40;28.50
728;DHT22;347;48.780;9.158;2023-03-31T00:52:18;13.40;28.40
728;DHT22;347;48.780;9.158;2023-03-31T00:54:50;13.40;28.40
728;DHT22;347;48.780;9.158;2023-03-31T00:57:16;13.30;28.20
728;DHT22;347;48.780;9.158;2023-03-31T00:59:46;13.30;28.60
728;DHT22;347;48.780;9.158;2023-03-31T01:02:13;13.30;28.50
728;DHT22;347;48.780;9.158;2023-03-31T01:04:46;13.30;28.40
728;DHT22;347;48.780;9.158;2023-03-31T01:07:21;13.30;28.20
728;DHT22;347;48.780;9.158;2023-03-31T01:13:11;13.30;28.40
728;DHT22;347;48.780;9.158;2023-03-31T01:15:38;13.30;28.40
728;DHT22;347;48.780;9.158;2023-03-31T01:18:07;13.30;28.20
728;DHT22;347;48.780;9.158;2023-03-31T01:24:10;13.40;28.20
728;DHT22;347;48.780;9.158;2023-03-31T01:29:28;13.50;28.60
728;DHT22;347;48.780;9.158;2023-03-31T01:38:10;13.80;28.00
728;DHT22;347;48.780;9.158;2023-03-31T01:41:06;13.70;27.80
728;DHT22;347;48.780;9.158;2023-03-31T01:49:05;13.80;27.90
728;DHT22;347;48.780;9.158;2023-03-31T01:54:22;13.50;27.30
728;DHT22;347;48.780;9.158;2023-03-31T01:57:00;13.30;28.40
728;DHT22;347;48.780;9.158;2023-03-31T01:59:39;13.30;28.90
728;DHT22;347;48.780;9.158;2023-03-31T02:02:18;13.20;29.10
728;DHT22;347;48.780;9.158;2023-03-31T02:04:57;13.20;29.20
728;DHT22;347;48.780;9.158;2023-03-31T02:07:38;13.10;30.40
728;DHT22;347;48.780;9.158;2023-03-31T02:10:08;13.00;30.40
728;DHT22;347;48.780;9.158;2023-03-31T02:12:37;12.90;31.10
728;DHT22;347;48.780;9.158;2023-03-31T02:15:06;12.90;31.40
728;DHT22;347;48.780;9.158;2023-03-31T02:17:34;12.90;32.20
728;DHT22;347;48.780;9.158;2023-03-31T02:20:08;12.90;31.90
728;DHT22;347;48.780;9.158;2023-03-31T02:22:39;12.90;33.00
728;DHT22;347;48.780;9.158;2023-03-31T02:25:10;12.80;33.00
728;DHT22;347;48.780;9.158;2023-03-31T02:27:39;12.90;33.60
728;DHT22;347;48.780;9.158;2023-03-31T02:30:07;12.90;34.10
728;DHT22;347;48.780;9.158;2023-03-31T02:32:40;12.90;34.00
728;DHT22;347;48.780;9.158;2023-03-31T02:35:10;12.80;34.00
728;DHT22;347;48.780;9.158;2023-03-31T02:37:37;12.70;35.20
728;DHT22;347;48.780;9.158;2023-03-31T02:40:09;12.70;35.10
728;DHT22;347;48.780;9.158;2023-03-31T02:42:37;12.70;35.10
728;DHT22;347;48.780;9.158;2023-03-31T02:45:06;12.80;34.90
728;DHT22;347;48.780;9.158;2023-03-31T02:47:32;12.80;35.10
728;DHT22;347;48.780;9.158;2023-03-31T02:49:59;12.80;34.10
728;DHT22;347;48.780;9.158;2023-03-31T02:52:56;12.90;34.00
728;DHT22;347;48.780;9.158;2023-03-31T02:55:55;12.90;34.10
728;DHT22;347;48.780;9.158;2023-03-31T03:04:28;12.70;33.90
728;DHT22;347;48.780;9.158;2023-03-31T03:07:13;12.70;34.80
728;DHT22;347;48.780;9.158;2023-03-31T03:10:05;12.80;35.00
728;DHT22;347;48.780;9.158;2023-03-31T03:15:17;13.00;35.30
728;DHT22;347;48.780;9.158;2023-03-31T03:17:47;13.10;34.90
728;DHT22;347;48.780;9.158;2023-03-31T03:20:15;13.10;34.20
728;DHT22;347;48.780;9.158;2023-03-31T03:22:43;13.10;34.20
728;DHT22;347;48.780;9.158;2023-03-31T03:25:10;13.00;34.10
728;DHT22;347;48.780;9.158;2023-03-31T03:27:37;12.90;34.40
728;DHT22;347;48.780;9.158;2023-03-31T03:30:05;12.90;34.70
728;DHT22;347;48.780;9.158;2023-03-31T03:32:31;12.80;35.20
728;DHT22;347;48.780;9.158;2023-03-31T03:35:01;12.60;35.50
728;DHT22;347;48.780;9.158;2023-03-31T03:37:28;12.50;36.30
728;DHT22;347;48.780;9.158;2023-03-31T03:39:53;12.50;36.70
728;DHT22;347;48.780;9.158;2023-03-31T03:42:19;12.40;36.80
728;DHT22;347;48.780;9.158;2023-03-31T03:44:45;12.30;37.40
728;DHT22;347;48.780;9.158;2023-03-31T03:47:10;12.20;37.30
728;DHT22;347;48.780;9.158;2023-03-31T03:49:36;12.30;37.40
728;DHT22;347;48.780;9.158;2023-03-31T03:52:02;12.30;37.30
728;DHT22;347;48.780;9.158;2023-03-31T03:54:27;12.30;37.10
728;DHT22;347;48.780;9.158;2023-03-31T03:56:53;12.20;37.30
728;DHT22;347;48.780;9.158;2023-03-31T03:59:18;12.10;37.70
728;DHT22;347;48.780;9.158;2023-03-31T04:01:44;12.20;37.70
728;DHT22;347;48.780;9.158;2023-03-31T04:04:10;12.20;37.50
728;DHT22;347;48.780;9.158;2023-03-31T04:06:36;12.10;37.70
728;DHT22;347;48.780;9.158;2023-03-31T04:09:02;12.10;37.60
728;DHT22;347;48.780;9.158;2023-03-31T04:11:28;12.00;37.70
728;DHT22;347;48.780;9.158;2023-03-31T04:13:54;11.90;38.10
728;DHT22;347;48.780;9.158;2023-03-31T04:16:19;11.90;38.40
728;DHT22;347;48.780;9.158;2023-03-31T04:18:47;11.90;38.50
728;DHT22;347;48.780;9.158;2023-03-31T04:21:13;11.80;39.00
728;DHT22;347;48.780;9.158;2023-03-31T04:23:47;11.70;39.50
728;DHT22;347;48.780;9.158;2023-03-31T04:26:14;11.70;40.10
728;DHT22;347;48.780;9.158;2023-03-31T04:28:40;11.60;40.50
728;DHT22;347;48.780;9.158;2023-03-31T04:31:11;11.60;41.00
728;DHT22;347;48.780;9.158;2023-03-31T04:33:50;11.60;40.50
728;DHT22;347;48.780;9.158;2023-03-31T04:36:15;11.70;40.20
728;DHT22;347;48.780;9.158;2023-03-31T04:38:48;11.70;39.10
728;DHT22;347;48.780;9.158;2023-03-31T04:41:21;11.70;39.80
728;DHT22;347;48.780;9.158;2023-03-31T04:43:47;11.70;39.10
728;DHT22;347;48.780;9.158;2023-03-31T04:46:13;11.80;39.60
728;DHT22;347;48.780;9.158;2023-03-31T04:48:38;11.90;39.40
728;DHT22;347;48.780;9.158;2023-03-31T04:51:04;11.80;39.80
728;DHT22;347;48.780;9.158;2023-03-31T04:53:30;11.80;40.20
728;DHT22;347;48.780;9.158;2023-03-31T04:55:56;11.80;39.80
728;DHT22;347;48.780;9.158;2023-03-31T04:58:22;11.80;40.40
728;DHT22;347;48.780;9.158;2023-03-31T05:00:48;11.80;40.50
728;DHT22;347;48.780;9.158;2023-03-31T05:03:13;11.70;41.00
728;DHT22;347;48.780;9.158;2023-03-31T05:05:39;11.70;40.70
728;DHT22;347;48.780;9.158;2023-03-31T05:08:04;11.60;41.10
728;DHT22;347;48.780;9.158;2023-03-31T05:10:30;11.60;41.30
728;DHT22;347;48.780;9.158;2023-03-31T05:12:56;11.70;40.70
728;DHT22;347;48.780;9.158;2023-03-31T05:15:22;11.70;42.00
728;DHT22;347;48.780;9.158;2023-03-31T05:17:49;11.80;41.70
728;DHT22;347;48.780;9.158;2023-03-31T05:20:15;11.70;42.10
728;DHT22;347;48.780;9.158;2023-03-31T05:22:41;11.70;42.90
728;DHT22;347;48.780;9.158;2023-03-31T05:25:08;11.60;43.10
728;DHT22;347;48.780;9.158;2023-03-31T05:27:34;11.60;43.20
728;DHT22;347;48.780;9.158;2023-03-31T05:30:01;11.60;44.30
728;DHT22;347;48.780;9.158;2023-03-31T05:32:27;11.60;44.80
728;DHT22;347;48.780;9.158;2023-03-31T05:34:53;11.60;46.00
728;DHT22;347;48.780;9.158;2023-03-31T05:37:25;11.60;46.70
728;DHT22;347;48.780;9.158;2023-03-31T05:39:50;11.60;46.80
728;DHT22;347;48.780;9.158;2023-03-31T05:42:16;11.50;48.90
728;DHT22;347;48.780;9.158;2023-03-31T05:44:42;11.50;48.40
728;DHT22;347;48.780;9.158;2023-03-31T05:47:07;11.50;48.20
728;DHT22;347;48.780;9.158;2023-03-31T05:49:33;11.40;48.70
728;DHT22;347;48.780;9.158;2023-03-31T05:51:58;11.40;49.80
728;DHT22;347;48.780;9.158;2023-03-31T05:54:24;11.40;49.40
728;DHT22;347;48.780;9.158;2023-03-31T05:56:50;11.50;50.10
728;DHT22;347;48.780;9.158;2023-03-31T05:59:15;11.60;49.20
728;DHT22;347;48.780;9.158;2023-03-31T06:01:41;11.50;49.10
728;DHT22;347;48.780;9.158;2023-03-31T06:04:06;11.50;49.20
728;DHT22;347;48.780;9.158;2023-03-31T06:06:32;11.50;49.40
728;DHT22;347;48.780;9.158;2023-03-31T06:08:59;11.50;49.70
728;DHT22;347;48.780;9.158;2023-03-31T06:11:24;11.40;50.20
728;DHT22;347;48.780;9.158;2023-03-31T06:13:50;11.40;50.20
728;DHT22;347;48.780;9.158;2023-03-31T06:16:16;11.40;50.70
728;DHT22;347;48.780;9.158;2023-03-31T06:18:42;11.40;50.70
728;DHT22;347;48.780;9.158;2023-03-31T06:21:11;11.40;50.40
728;DHT22;347;48.780;9.158;2023-03-31T06:23:37;11.40;50.80
728;DHT22;347;48.780;9.158;2023-03-31T06:26:04;11.40;50.10
728;DHT22;347;48.780;9.158;2023-03-31T06:28:31;11.50;50.80
728;DHT22;347;48.780;9.158;2023-03-31T06:31:20;11.60;50.80
728;DHT22;347;48.780;9.158;2023-03-31T06:33:45;11.50;50.00
728;DHT22;347;48.780;9.158;2023-03-31T06:36:16;11.50;50.50
728;DHT22;347;48.780;9.158;2023-03-31T06:38:42;11.50;50.50
728;DHT22;347;48.780;9.158;2023-03-31T06:41:11;11.50;50.90
728;DHT22;347;48.780;9.158;2023-03-31T06:43:37;11.60;50.80
728;DHT22;347;48.780;9.158;2023-03-31T06:46:03;11.50;51.70
728;DHT22;347;48.780;9.158;2023-03-31T06:48:29;11.40;52.20
728;DHT22;347;48.780;9.158;2023-03-31T06:50:58;11.40;52.60
728;DHT22;347;48.780;9.158;2023-03-31T06:53:25;11.30;53.50
728;DHT22;347;48.780;9.158;2023-03-31T06:55:50;11.30;53.60
728;DHT22;347;48.780;9.158;2023-03-31T06:58:16;11.30;53.60
728;DHT22;347;48.780;9.158;2023-03-31T07:00:42;11.20;53.50
728;DHT22;347;48.780;9.158;2023-03-31T07:03:10;11.20;53.80
728;DHT22;347;48.780;9.158;2023-03-31T07:05:36;11.20;54.70
728;DHT22;347;48.780;9.158;2023-03-31T07:08:02;11.20;54.60
728;DHT22;347;48.780;9.158;2023-03-31T07:10:30;11.20;55.00
728;DHT22;347;48.780;9.158;2023-03-31T07:12:56;11.10;54.90
728;DHT22;347;48.780;9.158;2023-03-31T07:15:22;11.10;54.40
728;DHT22;347;48.780;9.158;2023-03-31T07:17:48;11.10;55.00
728;DHT22;347;48.780;9.158;2023-03-31T07:20:16;11.20;54.20
728;DHT22;347;48.780;9.158;2023-03-31T07:22:43;11.20;54.30
728;DHT22;347;48.780;9.158;2023-03-31T07:25:11;11.30;53.10
728;DHT22;347;48.780;9.158;2023-03-31T07:27:37;11.40;51.90
728;DHT22;347;48.780;9.158;2023-03-31T07:30:08;11.30;51.40
728;DHT22;347;48.780;9.158;2023-03-31T07:32:34;11.40;50.40
728;DHT22;347;48.780;9.158;2023-03-31T07:35:05;11.30;48.30
728;DHT22;347;48.780;9.158;2023-03-31T07:37:38;11.40;48.80
728;DHT22;347;48.780;9.158;2023-03-31T07:40:06;11.30;49.30
728;DHT22;347;48.780;9.158;2023-03-31T07:42:32;11.30;48.10
728;DHT22;347;48.780;9.158;2023-03-31T07:44:58;11.40;47.30
728;DHT22;347;48.780;9.158;2023-03-31T07:47:24;11.40;46.80
728;DHT22;347;48.780;9.158;2023-03-31T07:49:50;11.50;47.80
728;DHT22;347;48.780;9.158;2023-03-31T07:52:16;11.60;46.20
728;DHT22;347;48.780;9.158;2023-03-31T07:54:46;11.70;45.40
728;DHT22;347;48.780;9.158;2023-03-31T07:57:12;11.80;45.60
728;DHT22;347;48.780;9.158;2023-03-31T07:59:38;11.80;43.80
728;DHT22;347;48.780;9.158;2023-03-31T08:02:04;11.90;41.60
728;DHT22;347;48.780;9.158;2023-03-31T08:04:30;11.90;43.30
728;DHT22;347;48.780;9.158;2023-03-31T08:06:55;11.90;44.00
728;DHT22;347;48.780;9.158;2023-03-31T08:09:22;11.90;41.80
728;DHT22;347;48.780;9.158;2023-03-31T08:11:48;12.00;40.70
728;DHT22;347;48.780;9.158;2023-03-31T08:14:14;12.00;40.60
728;DHT22;347;48.780;9.158;2023-03-31T08:16:40;12.10;41.50
728;DHT22;347;48.780;9.158;2023-03-31T08:19:06;12.20;41.40
728;DHT22;347;48.780;9.158;2023-03-31T08:21:31;12.30;40.60
728;DHT22;347;48.780;9.158;2023-03-31T08:23:57;12.30;41.20
728;DHT22;347;48.780;9.158;2023-03-31T08:26:23;12.40;40.50
728;DHT22;347;48.780;9.158;2023-03-31T08:28:50;12.40;39.90
728;DHT22;347;48.780;9.158;2023-03-31T08:31:18;12.50;40.30
728;DHT22;347;48.780;9.158;2023-03-31T08:33:45;12.60;39.10
728;DHT22;347;48.780;9.158;2023-03-31T08:36:11;12.70;40.20
728;DHT22;347;48.780;9.158;2023-03-31T08:38:38;12.80;39.20
728;DHT22;347;48.780;9.158;2023-03-31T08:41:13;12.80;38.10
728;DHT22;347;48.780;9.158;2023-03-31T08:43:45;13.00;38.30
728;DHT22;347;48.780;9.158;2023-03-31T08:46:14;13.10;37.90
728;DHT22;347;48.780;9.158;2023-03-31T08:48:47;13.20;37.50
728;DHT22;347;48.780;9.158;2023-03-31T08:51:26;13.40;37.70
728;DHT22;347;48.780;9.158;2023-03-31T08:54:02;13.50;35.50
728;DHT22;347;48.780;9.158;2023-03-31T08:56:30;13.60;35.70
728;DHT22;347;48.780;9.158;2023-03-31T08:58:57;13.70;34.70
728;DHT22;347;48.780;9.158;2023-03-31T09:09:43;14.00;34.60
728;DHT22;347;48.780;9.158;2023-03-31T09:12:28;14.20;35.20
728;DHT22;347;48.780;9.158;2023-03-31T09:15:39;14.40;33.10
728;DHT22;347;48.780;9.158;2023-03-31T09:21:17;14.90;29.00
728;DHT22;347;48.780;9.158;2023-03-31T09:24:05;15.20;27.90
728;DHT22;347;48.780;9.158;2023-03-31T09:29:26;15.30;25.30
728;DHT22;347;48.780;9.158;2023-03-31T09:31:55;15.20;26.10
728;DHT22;347;48.780;9.158;2023-03-31T09:34:28;15.00;26.60
728;DHT22;347;48.780;9.158;2023-03-31T09:36:55;14.90;25.60
728;DHT22;347;48.780;9.158;2023-03-31T09:39:21;14.80;27.10
728;DHT22;347;48.780;9.158;2023-03-31T09:41:49;14.70;27.30
728;DHT22;347;48.780;9.158;2023-03-31T09:46:47;14.50;27.20
728;DHT22;347;48.780;9.158;2023-03-31T09:49:20;14.40;27.10
728;DHT22;347;48.780;9.158;2023-03-31T09:51:50;14.40;27.10
728;DHT22;347;48.780;9.158;2023-03-31T09:54:23;14.50;26.20
728;DHT22;347;48.780;9.158;2023-03-31T09:56:51;14.50;24.70
728;DHT22;347;48.780;9.158;2023-03-31T09:59:22;14.60;26.30
728;DHT22;347;48.780;9.158;2023-03-31T10:01:50;14.60;25.00
728;DHT22;347;48.780;9.158;2023-03-31T10:04:22;14.80;25.80
728;DHT22;347;48.780;9.158;2023-03-31T10:06:49;15.00;24.20
728;DHT22;347;48.780;9.158;2023-03-31T10:09:19;15.10;23.60
728;DHT22;347;48.780;9.158;2023-03-31T10:11:57;15.10;24.10
728;DHT22;347;48.780;9.158;2023-03-31T10:14:26;15.20;23.50
728;DHT22;347;48.780;9.158;2023-03-31T10:16:57;15.30;23.50
728;DHT22;347;48.780;9.158;2023-03-31T10:19:32;15.50;22.50
728;DHT22;347;48.780;9.158;2023-03-31T10:22:13;15.60;21.30
728;DHT22;347;48.780;9.158;2023-03-31T10:24:42;15.70;21.90
728;DHT22;347;48.780;9.158;2023-03-31T10:27:28;15.90;22.10
728;DHT22;347;48.780;9.158;2023-03-31T10:29:56;16.00;21.90
728;DHT22;347;48.780;9.158;2023-03-31T10:32:31;16.10;21.10
728;DHT22;347;48.780;9.158;2023-03-31T10:35:32;16.00;20.40
728;DHT22;347;48.780;9.158;2023-03-31T10:38:05;15.80;20.20
728;DHT22;347;48.780;9.158;2023-03-31T10:40:32;15.90;20.30
728;DHT22;347;48.780;9.158;2023-03-31T10:45:37;16.10;19.10
728;DHT22;347;48.780;9.158;2023-03-31T10:48:34;16.20;19.20
728;DHT22;347;48.780;9.158;2023-03-31T10:51:26;16.20;18.70
728;DHT22;347;48.780;9.158;2023-03-31T10:53:54;16.20;19.10
728;DHT22;347;48.780;9.158;2023-03-31T11:13:36;15.90;18.90
728;DHT22;347;48.780;9.158;2023-03-31T11:16:43;15.90;18.90
728;DHT22;347;48.780;9.158;2023-03-31T11:30:56;13.40;34.50
728;DHT22;347;48.780;9.158;2023-03-31T11:41:34;11.50;37.60
728;DHT22;347;48.780;9.158;2023-03-31T11:44:03;11.40;39.30
728;DHT22;347;48.780;9.158;2023-03-31T11:46:47;11.40;39.00
728;DHT22;347;48.780;9.158;2023-03-31T11:49:32;11.30;36.80
728;DHT22;347;48.780;9.158;2023-03-31T11:55:00;11.30;38.80
728;DHT22;347;48.780;9.158;2023-03-31T11:57:38;11.30;37.50
728;DHT22;347;48.780;9.158;2023-03-31T12:00:22;11.30;37.80
728;DHT22;347;48.780;9.158;2023-03-31T12:05:24;11.30;38.40
728;DHT22;347;48.780;9.158;2023-03-31T12:08:10;11.40;36.60
728;DHT22;347;48.780;9.158;2023-03-31T12:10:42;11.60;39.00
728;DHT22;347;48.780;9.158;2023-03-31T12:13:29;11.80;36.00
728;DHT22;347;48.780;9.158;2023-03-31T12:22:03;12.50;32.20
728;DHT22;347;48.780;9.158;2023-03-31T12:24:31;12.60;31.60
728;DHT22;347;48.780;9.158;2023-03-31T12:32:21;12.90;28.60
728;DHT22;347;48.780;9.158;2023-03-31T12:35:20;13.10;28.40
728;DHT22;347;48.780;9.158;2023-03-31T12:38:07;13.20;28.70
728;DHT22;347;48.780;9.158;2023-03-31T12:43:36;13.60;27.40
728;DHT22;347;48.780;9.158;2023-03-31T12:48:53;13.70;26.80
728;DHT22;347;48.780;9.158;2023-03-31T12:54:19;13.90;26.40
728;DHT22;347;48.780;9.158;2023-03-31T12:59:36;14.20;26.40
728;DHT22;347;48.780;9.158;2023-03-31T13:04:36;14.40;24.50
728;DHT22;347;48.780;9.158;2023-03-31T13:07:03;14.30;25.60
728;DHT22;347;48.780;9.158;2023-03-31T13:09:43;14.20;24.60
728;DHT22;347;48.780;9.158;2023-03-31T13:12:20;14.20;24.30
728;DHT22;347;48.780;9.158;2023-03-31T13:14:49;14.20;24.30
728;DHT22;347;48.780;9.158;2023-03-31T13:20:35;14.20;27.50
728;DHT22;347;48.780;9.158;2023-03-31T13:23:14;14.10;28.50
728;DHT22;347;48.780;9.158;2023-03-31T13:25:47;13.70;31.30
728;DHT22;347;48.780;9.158;2023-03-31T13:31:02;12.90;35.10
728;DHT22;347;48.780;9.158;2023-03-31T13:33:44;12.50;36.90
728;DHT22;347;48.780;9.158;2023-03-31T13:36:28;12.40;39.30
728;DHT22;347;48.780;9.158;2023-03-31T13:47:47;11.90;39.00
728;DHT22;347;48.780;9.158;2023-03-31T13:56:18;11.20;40.40
728;DHT22;347;48.780;9.158;2023-03-31T13:58:56;11.10;40.50
728;DHT22;347;48.780;9.158;2023-03-31T14:01:52;11.00;39.60
728;DHT22;347;48.780;9.158;2023-03-31T14:04:50;10.90;41.10
728;DHT22;347;48.780;9.158;2023-03-31T14:07:29;10.80;40.10
728;DHT22;347;48.780;9.158;2023-03-31T14:09:56;10.80;38.70
728;DHT22;347;48.780;9.158;2023-03-31T14:12:35;11.00;40.00
728;DHT22;347;48.780;9.158;2023-03-31T14:15:03;11.00;40.70
728;DHT22;347;48.780;9.158;2023-03-31T14:17:37;11.10;39.70
728;DHT22;347;48.780;9.158;2023-03-31T14:20:30;11.30;40.40
728;DHT22;347;48.780;9.158;2023-03-31T14:25:52;11.70;38.30
728;DHT22;347;48.780;9.158;2023-03-31T14:31:10;12.00;36.30
728;DHT22;347;48.780;9.158;2023-03-31T14:38:34;12.30;37.70
728;DHT22;347;48.780;9.158;2023-03-31T14:41:00;12.40;36.10
728;DHT22;347;48.780;9.158;2023-03-31T14:43:32;12.40;33.60
728;DHT22;347;48.780;9.158;2023-03-31T14:46:06;12.50;33.70
728;DHT22;347;48.780;9.158;2023-03-31T14:48:43;12.50;34.20
728;DHT22;347;48.780;9.158;2023-03-31T14:51:12;12.50;33.70
728;DHT22;347;48.780;9.158;2023-03-31T14:53:38;12.50;32.00
728;DHT22;347;48.780;9.158;2023-03-31T14:56:15;12.50;31.40
728;DHT22;347;48.780;9.158;2023-03-31T14:58:49;12.60;33.70
728;DHT22;347;48.780;9.158;2023-03-31T15:01:24;12.70;33.90
728;DHT22;347;48.780;9.158;2023-03-31T15:03:53;12.70;31.90
728;DHT22;347;48.780;9.158;2023-03-31T15:06:23;12.70;31.20
728;DHT22;347;48.780;9.158;2023-03-31T15:08:53;12.60;32.50
728;DHT22;347;48.780;9.158;2023-03-31T15:11:20;12.70;31.90
728;DHT22;347;48.780;9.158;2023-03-31T15:13:56;12.70;31.80
728;DHT22;347;48.780;9.158;2023-03-31T15:16:41;12.70;33.60
728;DHT22;347;48.780;9.158;2023-03-31T15:19:22;12.70;31.10
728;DHT22;347;48.780;9.158;2023-03-31T15:21:57;12.70;31.10
728;DHT22;347;48.780;9.158;2023-03-31T15:24:26;12.70;32.80
728;DHT22;347;48.780;9.158;2023-03-31T15:29:25;12.80;30.80
728;DHT22;347;48.780;9.158;2023-03-31T15:31:57;12.80;30.90
728;DHT22;347;48.780;9.158;2023-03-31T15:34:31;12.90;29.90
728;DHT22;347;48.780;9.158;2023-03-31T15:36:58;12.90;30.60
728;DHT22;347;48.780;9.158;2023-03-31T15:39:27;13.00;29.40
728;DHT22;347;48.780;9.158;2023-03-31T15:41:55;13.00;30.10
728;DHT22;347;48.780;9.158;2023-03-31T15:44:36;13.00;29.70
728;DHT22;347;48.780;9.158;2023-03-31T15:47:17;13.00;29.40
728;DHT22;347;48.780;9.158;2023-03-31T15:50:07;13.00;29.20
728;DHT22;347;48.780;9.158;2023-03-31T15:52:38;13.00;28.70
728;DHT22;347;48.780;9.158;2023-03-31T15:57:52;13.00;29.20
728;DHT22;347;48.780;9.158;2023-03-31T16:00:46;13.00;28.50
728;DHT22;347;48.780;9.158;2023-03-31T16:03:32;13.00;28.30
728;DHT22;347;48.780;9.158;2023-03-31T16:06:04;13.00;27.90
728;DHT22;347;48.780;9.158;2023-03-31T16:08:42;12.90;27.90
728;DHT22;347;48.780;9.158;2023-03-31T16:11:23;13.00;28.40
728;DHT22;347;48.780;9.158;2023-03-31T16:13:55;13.10;28.20
728;DHT22;347;48.780;9.158;2023-03-31T16:16:23;13.00;28.10
728;DHT22;347;48.780;9.158;2023-03-31T16:18:52;13.00;28.40
728;DHT22;347;48.780;9.158;2023-03-31T16:21:24;13.10;29.10
728;DHT22;347;48.780;9.158;2023-03-31T16:23:56;13.10;28.40
728;DHT22;347;48.780;9.158;2023-03-31T16:26:23;13.00;28.50
728;DHT22;347;48.780;9.158;2023-03-31T16:28:51;13.00;28.20
728;DHT22;347;48.780;9.158;2023-03-31T16:31:36;12.90;27.40
728;DHT22;347;48.780;9.158;2023-03-31T16:34:05;12.80;27.90
728;DHT22;347;48.780;9.158;2023-03-31T16:36:31;12.80;28.50
728;DHT22;347;48.780;9.158;2023-03-31T16:38:56;12.70;31.80
728;DHT22;347;48.780;9.158;2023-03-31T16:41:26;12.50;31.40
728;DHT22;347;48.780;9.158;2023-03-31T16:43:52;12.50;30.90
728;DHT22;347;48.780;9.158;2023-03-31T16:46:20;12.30;32.80
728;DHT22;347;48.780;9.158;2023-03-31T16:48:46;12.10;32.50
728;DHT22;347;48.780;9.158;2023-03-31T16:51:12;12.00;32.00
728;DHT22;347;48.780;9.158;2023-03-31T16:53:38;11.90;32.80
728;DHT22;347;48.780;9.158;2023-03-31T16:56:05;11.90;33.50
728;DHT22;347;48.780;9.158;2023-03-31T16:58:35;11.80;31.60
728;DHT22;347;48.780;9.158;2023-03-31T17:01:02;11.80;32.10
728;DHT22;347;48.780;9.158;2023-03-31T17:03:28;11.70;31.90
728;DHT22;347;48.780;9.158;2023-03-31T17:05:56;11.70;32.10
728;DHT22;347;48.780;9.158;2023-03-31T17:08:24;11.70;31.80
728;DHT22;347;48.780;9.158;2023-03-31T17:11:02;11.70;33.00
728;DHT22;347;48.780;9.158;2023-03-31T17:13:29;11.70;32.50
728;DHT22;347;48.780;9.158;2023-03-31T17:15:55;11.70;33.00
728;DHT22;347;48.780;9.158;2023-03-31T17:18:21;11.70;32.50
728;DHT22;347;48.780;9.158;2023-03-31T17:20:46;11.60;32.90
728;DHT22;347;48.780;9.158;2023-03-31T17:23:12;11.60;32.90
728;DHT22;347;48.780;9.158;2023-03-31T17:25:49;11.50;32.80
728;DHT22;347;48.780;9.158;2023-03-31T17:28:15;11.50;32.90
728;DHT22;347;48.780;9.158;2023-03-31T17:30:41;11.50;32.70
728;DHT22;347;48.780;9.158;2023-03-31T17:33:09;11.50;32.50
728;DHT22;347;48.780;9.158;2023-03-31T17:35:36;11.40;32.70
728;DHT22;347;48.780;9.158;2023-03-31T17:38:01;11.40;32.70
728;DHT22;347;48.780;9.158;2023-03-31T17:40:29;11.50;32.40
728;DHT22;347;48.780;9.158;2023-03-31T17:42:58;11.40;32.10
728;DHT22;347;48.780;9.158;2023-03-31T17:45:24;11.40;32.50
728;DHT22;347;48.780;9.158;2023-03-31T17:47:49;11.40;32.50
728;DHT22;347;48.780;9.158;2023-03-31T17:50:16;11.40;32.80
728;DHT22;347;48.780;9.158;2023-03-31T17:52:42;11.50;32.80
728;DHT22;347;48.780;9.158;2023-03-31T17:55:08;11.50;32.80
728;DHT22;347;48.780;9.158;2023-03-31T17:57:34;11.60;32.90
728;DHT22;347;48.780;9.158;2023-03-31T18:00:02;11.50;33.00
728;DHT22;347;48.780;9.158;2023-03-31T18:02:28;11.60;32.90
728;DHT22;347;48.780;9.158;2023-03-31T18:04:53;11.70;33.00
728;DHT22;347;48.780;9.158;2023-03-31T18:07:19;11.80;33.10
728;DHT22;347;48.780;9.158;2023-03-31T18:09:47;11.80;35.70
728;DHT22;347;48.780;9.158;2023-03-31T18:12:13;11.90;35.50
728;DHT22;347;48.780;9.158;2023-03-31T18:14:39;12.20;35.10
728;DHT22;347;48.780;9.158;2023-03-31T18:17:04;12.30;34.80
728;DHT22;347;48.780;9.158;2023-03-31T18:19:31;12.40;33.60
728;DHT22;347;48.780;9.158;2023-03-31T18:21:56;12.50;34.30
728;DHT22;347;48.780;9.158;2023-03-31T18:24:22;12.50;33.70
728;DHT22;347;48.780;9.158;2023-03-31T18:26:48;12.50;34.60
728;DHT22;347;48.780;9.158;2023-03-31T18:29:13;12.20;38.00
728;DHT22;347;48.780;9.158;2023-03-31T18:31:39;11.90;38.40
728;DHT22;347;48.780;9.158;2023-03-31T18:34:05;11.60;39.10
728;DHT22;347;48.780;9.158;2023-03-31T18:36:31;11.40;40.30
728;DHT22;347;48.780;9.158;2023-03-31T18:38:57;11.30;41.20
728;DHT22;347;48.780;9.158;2023-03-31T18:41:23;11.20;40.30
728;DHT22;347;48.780;9.158;2023-03-31T18:43:49;11.20;40.80
728;DHT22;347;48.780;9.158;2023-03-31T18:46:17;11.20;41.10
728;DHT22;347;48.780;9.158;2023-03-31T18:48:42;11.10;40.20
728;DHT22;347;48.780;9.158;2023-03-31T18:51:09;11.10;40.40
728;DHT22;347;48.780;9.158;2023-03-31T18:53:35;11.10;41.00
728;DHT22;347;48.780;9.158;2023-03-31T18:56:01;11.20;40.60
728;DHT22;347;48.780;9.158;2023-03-31T18:58:28;11.10;40.50
728;DHT22;347;48.780;9.158;2023-03-31T19:00:55;11.20;40.60
728;DHT22;347;48.780;9.158;2023-03-31T19:03:21;11.20;39.80
728;DHT22;347;48.780;9.158;2023-03-31T19:05:47;11.10;38.90
728;DHT22;347;48.780;9.158;2023-03-31T19:08:13;11.10;40.80
728;DHT22;347;48.780;9.158;2023-03-31T19:10:38;11.10;39.70
728;DHT22;347;48.780;9.158;2023-03-31T19:13:05;11.10;39.50
728;DHT22;347;48.780;9.158;2023-03-31T19:15:31;11.10;38.80
728;DHT22;347;48.780;9.158;2023-03-31T19:17:57;11.10;40.30
728;DHT22;347;48.780;9.158;2023-03-31T19:20:23;11.10;38.80
728;DHT22;347;48.780;9.158;2023-03-31T19:22:49;11.10;39.60
728;DHT22;347;48.780;9.158;2023-03-31T19:25:17;11.20;38.60
728;DHT22;347;48.780;9.158;2023-03-31T19:27:44;11.20;38.80
728;DHT22;347;48.780;9.158;2023-03-31T19:30:21;11.20;39.00
728;DHT22;347;48.780;9.158;2023-03-31T19:32:48;11.20;38.70
728;DHT22;347;48.780;9.158;2023-03-31T19:35:15;11.20;38.60